Time;durP1;ratioP1;P1;durP2;ratioP2;P2;SDS_P1;SDS_P2;PMS_P1;PMS_P2;Temp;Humidity;BMP_temperature;BMP_pressure;BME280_temperature;BME280_humidity;BME280_pressure;Samples;Min_cycle;Max_cycle;Signal;HPM_P1;HPM_P2
2022/10/16 00:02:33;;;;;;;3.10;2.22;;;;;;;14.32;100.00;100851.25;10374717;28;20032;-66
2022/10/16 00:07:34;;;;;;;1.63;1.52;;;;;;;14.35;100.00;100853.53;10356216;28;20095;-64
2022/10/16 00:12:34;;;;;;;2.05;1.50;;;;;;;14.34;100.00;100865.50;10377639;28;20046;-66
2022/10/16 00:17:35;;;;;;;11.32;2.03;;;;;;;14.25;100.00;100852.38;10387844;28;20025;-65
2022/10/16 00:22:35;;;;;;;1.08;1.02;;;;;;;14.26;100.00;100852.16;10388477;28;20361;-64
2022/10/16 00:27:35;;;;;;;3.63;1.30;;;;;;;14.26;100.00;100843.16;10388121;28;20037;-64
2022/10/16 00:32:36;;;;;;;1.05;1.05;;;;;;;14.23;100.00;100852.63;10387017;28;20022;-64
2022/10/16 00:37:36;;;;;;;5.10;1.40;;;;;;;14.11;100.00;100829.91;10387237;28;20385;-65
2022/10/16 00:42:37;;;;;;;5.97;1.40;;;;;;;14.19;100.00;100846.75;10386121;28;20032;-64
2022/10/16 00:47:44;;;;;;;1.10;0.98;;;;;;;14.20;100.00;100834.00;10386668;28;20430;-64
2022/10/16 00:52:46;;;;;;;2.03;1.20;;;;;;;14.16;100.00;100838.22;10386979;28;20037;-64
2022/10/16 00:57:47;;;;;;;0.95;0.95;;;;;;;14.16;100.00;100846.38;10369683;28;20041;-65
2022/10/16 01:02:54;;;;;;;2.50;1.98;;;;;;;14.12;100.00;100859.63;10385216;28;20053;-65
2022/10/16 01:08:13;;;;;;;2.22;1.27;;;;;;;13.96;100.00;100862.88;10387571;28;20388;-64
2022/10/16 01:13:29;;;;;;;1.27;1.23;;;;;;;13.92;100.00;100854.31;10385171;28;20053;-65
2022/10/16 01:18:46;;;;;;;5.97;2.05;;;;;;;13.83;100.00;100857.53;10369353;28;20083;-73
2022/10/16 01:24:05;;;;;;;1.73;1.60;;;;;;;13.61;100.00;100855.16;10384511;28;20034;-73
2022/10/16 01:29:21;;;;;;;1.45;1.38;;;;;;;13.45;100.00;100850.22;10380403;28;20075;-73
2022/10/16 01:34:29;;;;;;;4.35;1.02;;;;;;;13.34;100.00;100856.38;10380020;28;20116;-73
2022/10/16 01:39:30;;;;;;;5.47;1.90;;;;;;;13.41;100.00;100860.72;10379962;28;20113;-73
2022/10/16 01:44:32;;;;;;;5.80;2.10;;;;;;;13.46;100.00;100869.06;10381403;28;20033;-73
2022/10/16 01:49:33;;;;;;;1.63;1.33;;;;;;;13.49;100.00;100863.16;10351439;28;20025;-73
2022/10/16 01:54:34;;;;;;;1.42;1.35;;;;;;;13.45;100.00;100861.13;10367615;28;20030;-73
2022/10/16 01:59:37;;;;;;;1.58;1.48;;;;;;;13.48;100.00;100868.84;10365921;28;20075;-73
2022/10/16 02:04:59;;;;;;;3.55;2.08;;;;;;;13.50;100.00;100869.47;10347407;28;20034;-73
2022/10/16 02:10:00;;;;;;;2.13;1.63;;;;;;;13.45;100.00;100869.28;10361938;28;20053;-73
2022/10/16 02:15:00;;;;;;;1.58;1.48;;;;;;;13.44;100.00;100871.16;10378218;28;20504;-73
2022/10/16 02:20:00;;;;;;;1.70;1.60;;;;;;;13.49;100.00;100873.22;10377962;28;20061;-73
2022/10/16 02:25:03;;;;;;;9.15;1.85;;;;;;;13.54;100.00;100869.88;10362404;28;20030;-73
2022/10/16 02:30:13;;;;;;;1.25;1.15;;;;;;;13.44;100.00;100889.38;10377992;28;20026;-73
2022/10/16 02:35:18;;;;;;;8.65;2.83;;;;;;;13.44;100.00;100883.94;10377246;28;20030;-73
2022/10/16 02:40:18;;;;;;;1.60;1.50;;;;;;;13.27;100.00;100889.00;10360680;28;20128;-73
2022/10/16 02:45:18;;;;;;;2.28;1.92;;;;;;;13.14;100.00;100889.03;10379284;28;20166;-73
2022/10/16 02:50:19;;;;;;;1.85;1.55;;;;;;;12.97;100.00;100886.78;10377828;28;20454;-73
2022/10/16 02:55:19;;;;;;;5.25;2.30;;;;;;;12.86;100.00;100892.03;10378806;28;20037;-73
2022/10/16 03:00:20;;;;;;;5.03;1.42;;;;;;;12.94;100.00;100889.94;10377503;28;20030;-73
2022/10/16 03:05:20;;;;;;;2.55;2.20;;;;;;;13.01;100.00;100888.03;10376789;28;20364;-73
2022/10/16 03:10:21;;;;;;;9.60;2.90;;;;;;;13.07;100.00;100889.06;10376717;28;20054;-73
2022/10/16 03:15:21;;;;;;;2.28;2.13;;;;;;;13.21;100.00;100901.56;10376487;28;20124;-73
2022/10/16 03:20:21;;;;;;;4.57;1.88;;;;;;;13.29;100.00;100908.69;10377460;28;20038;-73
2022/10/16 03:25:22;;;;;;;1.92;1.83;;;;;;;13.31;100.00;100911.19;10376532;28;20084;-73
2022/10/16 03:30:22;;;;;;;2.70;2.05;;;;;;;13.35;100.00;100921.41;10376518;28;20373;-73
2022/10/16 03:35:23;;;;;;;4.82;3.05;;;;;;;13.38;100.00;100923.72;10376282;28;20117;-73
2022/10/16 03:40:23;;;;;;;4.32;2.88;;;;;;;13.43;100.00;100923.06;10375013;28;20034;-74
2022/10/16 03:45:24;;;;;;;4.20;2.08;;;;;;;13.40;100.00;100934.34;10375986;28;20065;-73
2022/10/16 03:50:24;;;;;;;2.63;1.40;;;;;;;13.23;100.00;100939.41;10374041;28;20113;-73
2022/10/16 03:55:25;;;;;;;2.88;1.63;;;;;;;13.01;100.00;100947.00;10375644;28;20042;-73
2022/10/16 04:00:25;;;;;;;2.70;1.77;;;;;;;12.95;100.00;100950.56;10376155;28;20054;-73
2022/10/16 04:05:26;;;;;;;3.20;2.78;;;;;;;13.08;100.00;100946.97;10374819;28;20044;-73
2022/10/16 04:10:26;;;;;;;3.55;1.75;;;;;;;13.14;100.00;100955.13;10375085;28;20049;-73
2022/10/16 04:15:26;;;;;;;2.17;2.05;;;;;;;13.22;100.00;100957.63;10373539;28;20030;-73
2022/10/16 04:20:27;;;;;;;10.05;3.67;;;;;;;13.20;100.00;100970.59;10359278;28;20442;-73
2022/10/16 04:25:27;;;;;;;8.13;2.17;;;;;;;13.22;100.00;100971.22;10376183;28;20045;-73
2022/10/16 04:30:28;;;;;;;2.70;2.47;;;;;;;13.20;100.00;100989.63;10374937;28;20034;-73
2022/10/16 04:35:28;;;;;;;2.63;2.42;;;;;;;13.07;100.00;100986.94;10375440;28;20033;-73
2022/10/16 04:40:29;;;;;;;2.65;2.45;;;;;;;13.18;100.00;100996.34;10375352;28;20038;-73
2022/10/16 04:45:29;;;;;;;5.85;1.98;;;;;;;13.22;100.00;101008.47;10375354;28;20038;-74
2022/10/16 04:50:29;;;;;;;4.05;2.38;;;;;;;13.25;100.00;101025.22;10375216;28;20466;-73
2022/10/16 04:55:30;;;;;;;3.38;2.20;;;;;;;13.32;100.00;101025.19;10374463;28;20034;-74
2022/10/16 05:00:30;;;;;;;3.80;1.98;;;;;;;13.12;100.00;101022.50;10376087;28;20030;-76
2022/10/16 05:05:31;;;;;;;1.73;1.55;;;;;;;12.89;100.00;101033.81;10383214;28;20112;-76
2022/10/16 05:10:31;;;;;;;5.78;2.15;;;;;;;12.84;100.00;101043.63;10382237;28;20054;-78
2022/10/16 05:15:31;;;;;;;4.85;1.90;;;;;;;12.76;100.00;101050.09;10381595;28;20136;-77
2022/10/16 05:20:32;;;;;;;4.05;2.47;;;;;;;12.74;100.00;101055.75;10380448;28;20033;-78
2022/10/16 05:25:32;;;;;;;4.13;2.20;;;;;;;12.70;100.00;101062.66;10379368;28;20030;-78
2022/10/16 05:30:33;;;;;;;7.07;1.95;;;;;;;12.65;100.00;101067.84;10380408;28;20104;-76
2022/10/16 05:35:33;;;;;;;3.45;1.80;;;;;;;12.63;100.00;101072.66;10380829;28;20347;-76
2022/10/16 05:40:35;;;;;;;2.20;2.03;;;;;;;12.63;100.00;101075.38;10379323;28;20365;-76
2022/10/16 05:45:35;;;;;;;4.57;1.60;;;;;;;12.63;100.00;101079.97;10381527;28;20041;-76
2022/10/16 05:50:35;;;;;;;3.03;1.95;;;;;;;12.60;100.00;101075.78;10380085;28;20076;-76
2022/10/16 05:55:36;;;;;;;2.88;1.60;;;;;;;12.56;100.00;101086.22;10379982;28;20057;-76
2022/10/16 06:00:36;;;;;;;7.78;2.20;;;;;;;12.56;100.00;101094.38;10380425;28;20092;-75
2022/10/16 06:05:36;;;;;;;6.82;3.05;;;;;;;12.53;100.00;101096.66;10379579;28;20053;-75
2022/10/16 06:10:37;;;;;;;4.78;2.03;;;;;;;12.50;100.00;101097.06;10379502;28;20490;-75
2022/10/16 06:15:38;;;;;;;7.88;2.42;;;;;;;12.53;100.00;101102.94;10363397;28;20042;-76
2022/10/16 06:20:39;;;;;;;7.47;1.75;;;;;;;12.53;100.00;101102.09;10379025;28;20051;-75
2022/10/16 06:25:39;;;;;;;3.72;2.15;;;;;;;12.53;100.00;101105.66;10378763;28;20042;-75
2022/10/16 06:30:40;;;;;;;7.30;1.52;;;;;;;12.53;100.00;101118.41;10379615;28;20033;-75
2022/10/16 06:35:40;;;;;;;6.03;2.78;;;;;;;12.50;100.00;101116.94;10361615;28;20405;-75
2022/10/16 06:40:40;;;;;;;2.25;1.85;;;;;;;12.52;100.00;101127.59;10377211;28;20101;-75
2022/10/16 06:45:41;;;;;;;1.90;1.80;;;;;;;12.56;100.00;101131.56;10378118;28;20037;-75
2022/10/16 06:50:41;;;;;;;3.33;1.92;;;;;;;12.53;100.00;101148.28;10377258;28;20076;-75
2022/10/16 06:55:41;;;;;;;6.22;2.67;;;;;;;12.53;100.00;101159.16;10377481;28;20481;-75
2022/10/16 07:00:42;;;;;;;5.78;2.30;;;;;;;12.56;100.00;101161.47;10375509;28;20045;-75
2022/10/16 07:05:42;;;;;;;3.70;2.08;;;;;;;12.90;100.00;101171.38;10377398;28;20042;-76
2022/10/16 07:10:43;;;;;;;15.77;2.47;;;;;;;13.51;100.00;101186.72;10376784;28;20049;-75
2022/10/16 07:15:43;;;;;;;10.90;2.95;;;;;;;14.21;100.00;101194.34;10376453;28;20070;-75
2022/10/16 07:20:43;;;;;;;5.53;1.92;;;;;;;14.52;100.00;101199.09;10375512;28;20069;-76
2022/10/16 07:25:44;;;;;;;2.60;2.28;;;;;;;14.87;100.00;101205.00;10376399;28;20065;-76
2022/10/16 07:30:44;;;;;;;7.25;2.97;;;;;;;15.03;100.00;101218.13;10376432;28;20032;-76
2022/10/16 07:35:53;;;;;;;9.60;3.03;;;;;;;15.43;100.00;101228.75;10376726;28;20342;-76
2022/10/16 07:40:57;;;;;;;2.85;2.42;;;;;;;15.68;100.00;101244.34;10374805;28;20525;-75
2022/10/16 07:45:58;;;;;;;10.70;2.45;;;;;;;16.03;100.00;101242.75;10377161;28;20029;-75
2022/10/16 07:51:03;;;;;;;9.88;2.45;;;;;;;16.26;100.00;101254.91;10375792;28;20052;-75
2022/10/16 07:56:05;;;;;;;3.72;1.63;;;;;;;16.62;100.00;101258.69;10374050;28;20033;-75
2022/10/16 08:01:08;;;;;;;4.40;2.60;;;;;;;17.02;100.00;101271.91;10375403;28;20037;-75
2022/10/16 08:06:08;;;;;;;3.53;3.20;;;;;;;17.20;100.00;101291.03;10374830;28;20113;-75
2022/10/16 08:11:08;;;;;;;5.20;1.73;;;;;;;17.57;100.00;101294.47;10375654;28;20053;-75
2022/10/16 08:16:09;;;;;;;14.02;2.55;;;;;;;17.86;100.00;101305.63;10375850;28;20443;-75
2022/10/16 08:21:13;;;;;;;5.47;2.17;;;;;;;18.00;100.00;101301.63;10342164;28;20538;-75
2022/10/16 08:26:14;;;;;;;5.97;2.72;;;;;;;17.99;100.00;101312.81;10373818;28;20417;-75
2022/10/16 08:31:15;;;;;;;10.43;2.70;;;;;;;18.39;100.00;101318.41;10374145;28;20088;-75
2022/10/16 08:36:15;;;;;;;7.50;2.85;;;;;;;18.66;100.00;101329.72;10379511;28;20033;-75
2022/10/16 08:41:54;;;;;;;9.63;2.72;;;;;;;18.95;100.00;101338.03;10366616;28;20510;-75
2022/10/16 08:47:08;;;;;;;1.77;1.55;;;;;;;19.09;100.00;101350.41;10368292;28;20111;-75
2022/10/16 08:52:13;;;;;;;11.98;3.30;;;;;;;18.88;100.00;101359.28;10349034;28;20462;-78
2022/10/16 08:57:17;;;;;;;7.45;2.85;;;;;;;19.14;100.00;101358.75;10364562;28;20452;-74
2022/10/16 09:02:26;;;;;;;8.27;3.08;;;;;;;19.27;100.00;101363.97;10364942;28;20034;-74
2022/10/16 09:07:47;;;;;;;2.38;2.05;;;;;;;19.59;100.00;101374.47;10381783;28;20026;-75
2022/10/16 09:13:09;;;;;;;3.47;1.80;;;;;;;19.72;100.00;101370.63;10366857;28;20451;-75
2022/10/16 09:18:32;;;;;;;8.35;2.95;;;;;;;20.14;100.00;101376.56;10381443;28;20100;-75
2022/10/16 09:23:36;;;;;;;9.10;2.60;;;;;;;20.26;100.00;101381.13;10381711;28;20432;-75
2022/10/16 09:28:37;;;;;;;6.95;3.03;;;;;;;20.31;100.00;101368.31;10364051;28;20034;-76
2022/10/16 09:33:37;;;;;;;12.43;2.83;;;;;;;20.63;100.00;101381.47;10379535;28;20061;-76
2022/10/16 09:38:38;;;;;;;5.22;2.50;;;;;;;20.84;100.00;101386.19;10362496;28;20034;-77
2022/10/16 09:43:47;;;;;;;7.80;3.10;;;;;;;21.30;100.00;101397.78;10379826;28;20183;-76
2022/10/16 09:48:49;;;;;;;9.90;4.65;;;;;;;21.36;100.00;101394.03;10378265;28;20054;-76
2022/10/16 09:53:54;;;;;;;5.82;2.30;;;;;;;21.71;100.00;101391.94;10379444;28;20446;-76
2022/10/16 09:58:56;;;;;;;8.43;3.53;;;;;;;22.01;100.00;101400.50;10379288;28;20057;-76
2022/10/16 10:04:01;;;;;;;9.65;4.35;;;;;;;20.93;100.00;101402.25;10379080;28;20168;-75
2022/10/16 10:09:15;;;;;;;5.97;2.80;;;;;;;21.18;100.00;101399.84;10362551;28;20080;-74
2022/10/16 10:14:21;;;;;;;12.20;2.53;;;;;;;21.04;100.00;101404.91;10380686;28;20089;-75
2022/10/16 10:19:22;;;;;;;9.65;3.15;;;;;;;21.07;100.00;101409.91;10378356;28;20030;-75
2022/10/16 10:24:23;;;;;;;7.93;2.72;;;;;;;19.74;100.00;101424.22;10378635;28;20046;-74
2022/10/16 10:29:32;;;;;;;10.68;3.22;;;;;;;19.84;100.00;101422.75;10378155;28;20400;-75
2022/10/16 10:34:44;;;;;;;7.50;3.85;;;;;;;20.94;100.00;101437.81;10379925;28;20209;-74
2022/10/16 10:40:01;;;;;;;8.45;3.75;;;;;;;20.62;100.00;101438.44;10378383;28;20096;-75
2022/10/16 10:45:15;;;;;;;10.07;3.15;;;;;;;21.20;100.00;101440.91;10362529;28;20130;-75
2022/10/16 10:50:21;;;;;;;6.47;4.05;;;;;;;21.86;100.00;101444.50;10360189;28;20055;-75
2022/10/16 10:55:45;;;;;;;7.95;2.85;;;;;;;22.58;100.00;101442.38;10378755;28;20061;-75
2022/10/16 11:01:08;;;;;;;9.68;3.65;;;;;;;22.76;100.00;101461.28;10360282;28;20395;-75
2022/10/16 11:06:15;;;;;;;4.40;2.58;;;;;;;22.77;100.00;101471.22;10377070;28;20029;-75
2022/10/16 11:11:22;;;;;;;2.58;1.95;;;;;;;22.68;100.00;101468.13;10344287;28;20100;-75
2022/10/16 11:16:25;;;;;;;3.97;2.13;;;;;;;23.04;100.00;101471.19;10361361;28;20029;-74
2022/10/16 11:21:25;;;;;;;8.00;2.92;;;;;;;23.12;100.00;101480.88;10375246;28;20026;-74
2022/10/16 11:26:28;;;;;;;5.45;2.53;;;;;;;23.02;100.00;101489.94;10359361;28;20033;-74
2022/10/16 11:31:40;;;;;;;3.58;1.98;;;;;;;22.59;100.00;101494.59;10375485;28;20057;-73
2022/10/16 11:36:44;;;;;;;9.65;2.20;;;;;;;22.19;100.00;101486.75;10358837;28;20474;-74
2022/10/16 11:41:55;;;;;;;4.25;2.10;;;;;;;21.78;100.00;101494.56;10375771;28;20038;-73
2022/10/16 11:47:13;;;;;;;6.13;2.47;;;;;;;21.48;100.00;101492.28;10374574;28;20092;-73
2022/10/16 11:52:20;;;;;;;6.07;2.80;;;;;;;21.92;100.00;101498.59;10358545;28;20034;-73
2022/10/16 11:57:24;;;;;;;6.88;2.35;;;;;;;21.07;100.00;101516.47;10375346;28;20053;-73
2022/10/16 12:02:36;;;;;;;11.43;2.45;;;;;;;20.83;100.00;101519.38;10375268;28;20038;-73
2022/10/16 12:07:40;;;;;;;7.55;2.10;;;;;;;21.24;100.00;101508.16;10374798;28;20382;-72
2022/10/16 12:12:41;;;;;;;17.20;2.67;;;;;;;21.57;100.00;101513.63;10356990;28;20060;-73
2022/10/16 12:17:41;;;;;;;4.18;1.80;;;;;;;20.89;100.00;101512.06;10373719;28;20040;-74
2022/10/16 12:22:53;;;;;;;4.47;2.72;;;;;;;20.53;100.00;101529.91;10376020;28;20110;-73
2022/10/16 12:27:58;;;;;;;2.55;1.77;;;;;;;20.46;100.00;101523.72;10375866;28;20037;-74
2022/10/16 12:33:03;;;;;;;10.48;2.78;;;;;;;20.47;100.00;101528.13;10374463;28;20113;-73
2022/10/16 12:38:15;;;;;;;5.20;2.60;;;;;;;20.15;100.00;101531.38;10373995;28;20049;-74
2022/10/16 12:43:28;;;;;;;8.32;2.72;;;;;;;20.22;100.00;101534.81;10373230;28;20032;-75
2022/10/16 12:48:28;;;;;;;5.65;2.10;;;;;;;20.13;100.00;101528.03;10389551;28;20124;-73
2022/10/16 12:53:29;;;;;;;6.32;2.72;;;;;;;19.95;100.00;101526.34;10374176;28;20451;-73
2022/10/16 12:58:51;;;;;;;9.80;2.50;;;;;;;20.35;100.00;101526.25;10374074;28;20121;-74
2022/10/16 13:04:31;;;;;;;9.65;2.88;;;;;;;19.89;100.00;101541.88;10374671;28;20030;-74
2022/10/16 13:09:40;;;;;;;10.02;2.83;;;;;;;19.62;100.00;101549.81;10373775;28;20034;-74
2022/10/16 13:15:09;;;;;;;14.43;2.92;;;;;;;19.45;100.00;101548.88;10373840;28;20042;-73
2022/10/16 13:20:34;;;;;;;6.03;2.35;;;;;;;19.23;100.00;101557.72;10375648;28;20045;-74
2022/10/16 13:25:47;;;;;;;8.45;2.65;;;;;;;18.75;100.00;101558.75;10366892;28;20033;-73
2022/10/16 13:30:54;;;;;;;9.00;2.30;;;;;;;18.58;100.00;101557.75;10379775;28;20030;-73
2022/10/16 13:35:56;;;;;;;11.10;3.63;;;;;;;18.50;100.00;101577.28;10347420;28;20030;-73
2022/10/16 13:40:57;;;;;;;12.50;3.75;;;;;;;18.46;100.00;101563.19;10363131;28;20045;-75
2022/10/16 13:46:12;;;;;;;11.40;2.33;;;;;;;18.44;100.00;101586.44;10380215;28;20036;-73
2022/10/16 13:51:16;;;;;;;6.35;2.90;;;;;;;18.44;100.00;101568.09;10381638;28;20030;-73
2022/10/16 13:56:18;;;;;;;5.65;2.65;;;;;;;18.30;100.00;101563.88;10378676;28;20093;-74
2022/10/16 14:01:25;;;;;;;5.03;2.72;;;;;;;18.18;100.00;101555.59;10362220;28;20076;-76
2022/10/16 14:06:25;;;;;;;;;;;;;;;18.24;100.00;101560.13;10379182;28;20097;-73
2022/10/16 14:11:25;;;;;;;8.02;2.42;;;;;;;18.28;100.00;101558.63;10394297;28;19917;-75
2022/10/16 14:16:27;;;;;;;12.85;3.10;;;;;;;18.14;100.00;101562.59;10361603;28;20045;-75
2022/10/16 14:21:28;;;;;;;8.27;1.85;;;;;;;18.05;100.00;101558.50;10361238;28;20519;-72
2022/10/16 14:26:28;;;;;;;5.88;2.10;;;;;;;17.91;100.00;101563.34;10377212;28;20034;-76
2022/10/16 14:31:31;;;;;;;11.55;3.47;;;;;;;17.94;100.00;101573.84;10377389;28;20034;-74
2022/10/16 14:36:31;;;;;;;17.73;4.50;;;;;;;17.87;100.00;101552.00;10378366;28;20034;-74
2022/10/16 14:41:41;;;;;;;5.70;2.72;;;;;;;17.87;100.00;101560.22;10361172;28;20129;-74
2022/10/16 14:46:42;;;;;;;15.02;3.45;;;;;;;17.88;100.00;101558.31;10345261;28;20104;-74
2022/10/16 14:51:44;;;;;;;8.73;3.13;;;;;;;17.83;100.00;101569.94;10302902;28;20096;-74
2022/10/16 14:56:53;;;;;;;3.42;1.88;;;;;;;17.75;100.00;101552.97;10360557;28;20034;-74
2022/10/16 15:01:53;;;;;;;10.15;3.53;;;;;;;17.60;100.00;101554.19;10376362;28;20029;-74
2022/10/16 15:06:54;;;;;;;9.68;3.45;;;;;;;17.55;100.00;101565.00;10375849;28;20045;-74
2022/10/16 15:11:54;;;;;;;10.25;3.30;;;;;;;17.38;100.00;101559.25;10376832;28;20446;-74
2022/10/16 15:16:54;;;;;;;4.20;2.72;;;;;;;17.31;100.00;101543.97;10377623;28;20096;-74
2022/10/16 15:21:55;;;;;;;5.22;2.53;;;;;;;17.29;100.00;101557.03;10376302;28;20423;-74
2022/10/16 15:26:55;;;;;;;6.10;2.97;;;;;;;17.21;100.00;101549.97;10358934;28;20040;-74
2022/10/16 15:31:56;;;;;;;7.30;3.95;;;;;;;17.10;100.00;101558.91;10375723;28;20058;-74
2022/10/16 15:36:57;;;;;;;17.65;4.85;;;;;;;16.95;100.00;101560.09;10377133;28;20030;-74
2022/10/16 15:41:58;;;;;;;9.05;4.13;;;;;;;16.84;100.00;101559.97;10375118;28;20037;-74
2022/10/16 15:46:58;;;;;;;10.05;4.85;;;;;;;16.78;100.00;101572.66;10358415;28;20041;-74
2022/10/16 15:51:58;;;;;;;6.38;3.97;;;;;;;16.69;100.00;101554.84;10374585;28;20030;-74
2022/10/16 15:56:59;;;;;;;14.80;4.38;;;;;;;16.64;100.00;101551.91;10376344;28;20042;-74
2022/10/16 16:01:59;;;;;;;12.07;4.65;;;;;;;16.49;100.00;101550.31;10374344;28;20044;-74
2022/10/16 16:07:01;;;;;;;10.25;3.42;;;;;;;16.40;100.00;101546.19;10375600;28;20065;-74
2022/10/16 16:12:01;;;;;;;9.93;4.35;;;;;;;16.28;100.00;101539.75;10375269;28;20054;-74
2022/10/16 16:17:01;;;;;;;8.65;2.95;;;;;;;16.17;100.00;101549.47;10374920;28;20065;-74
2022/10/16 16:22:02;;;;;;;14.82;3.92;;;;;;;16.01;100.00;101553.53;10375343;28;20065;-74
2022/10/16 16:27:02;;;;;;;15.68;4.05;;;;;;;15.91;100.00;101571.47;10375871;28;20042;-74
2022/10/16 16:32:03;;;;;;;12.98;3.33;;;;;;;15.84;100.00;101589.78;10373657;28;20062;-74
2022/10/16 16:37:03;;;;;;;18.08;4.10;;;;;;;15.76;100.00;101590.84;10390369;28;20470;-74
2022/10/16 16:42:06;;;;;;;16.35;6.25;;;;;;;15.72;100.00;101581.41;10375221;28;20077;-74
2022/10/16 16:47:06;;;;;;;11.38;5.72;;;;;;;15.63;100.00;101567.09;10358088;28;20033;-74
2022/10/16 16:52:06;;;;;;;14.70;5.28;;;;;;;15.61;100.00;101576.59;10373729;28;20040;-74
2022/10/16 16:57:07;;;;;;;12.10;4.90;;;;;;;15.50;100.00;101567.97;10380290;28;20377;-74
2022/10/16 17:02:08;;;;;;;8.68;5.63;;;;;;;15.45;100.00;101573.25;10383195;28;20045;-74
2022/10/16 17:07:08;;;;;;;11.13;6.25;;;;;;;15.37;100.00;101589.84;10349726;28;20053;-74
2022/10/16 17:12:08;;;;;;;11.05;4.75;;;;;;;15.27;100.00;101587.56;10381987;28;20458;-74
2022/10/16 17:17:09;;;;;;;6.70;4.43;;;;;;;15.20;100.00;101603.09;10365633;28;20034;-74
2022/10/16 17:22:09;;;;;;;6.60;4.18;;;;;;;15.17;100.00;101608.16;10382190;28;20386;-74
2022/10/16 17:27:11;;;;;;;16.02;4.63;;;;;;;15.09;100.00;101601.84;10380162;28;20034;-74
2022/10/16 17:32:11;;;;;;;15.10;5.05;;;;;;;15.05;100.00;101607.94;10379599;28;20117;-74
2022/10/16 17:37:12;;;;;;;13.82;5.05;;;;;;;15.02;100.00;101608.34;10380619;28;20141;-74
2022/10/16 17:42:12;;;;;;;17.67;5.60;;;;;;;14.99;100.00;101601.41;10379566;28;20084;-74
2022/10/16 17:47:13;;;;;;;32.38;5.55;;;;;;;14.99;100.00;101597.84;10380642;28;20034;-74
2022/10/16 17:52:13;;;;;;;9.48;3.97;;;;;;;14.99;100.00;101614.22;10378997;28;20037;-74
2022/10/16 17:57:13;;;;;;;13.88;5.10;;;;;;;14.99;100.00;101619.66;10380224;28;20038;-74
2022/10/16 18:02:14;;;;;;;7.97;4.32;;;;;;;15.01;100.00;101634.78;10379995;28;20034;-74
2022/10/16 18:07:14;;;;;;;9.82;6.45;;;;;;;15.01;100.00;101640.25;10378832;28;20414;-74
2022/10/16 18:12:14;;;;;;;9.32;5.95;;;;;;;15.07;100.00;101650.31;10381254;28;20058;-74
2022/10/16 18:17:18;;;;;;;16.42;6.07;;;;;;;15.07;100.00;101652.22;10379580;28;20473;-74
2022/10/16 18:22:18;;;;;;;11.45;5.70;;;;;;;15.00;100.00;101644.03;10361649;28;20037;-74
2022/10/16 18:27:18;;;;;;;9.82;5.50;;;;;;;14.90;100.00;101659.97;10379093;28;20030;-74
2022/10/16 18:32:19;;;;;;;8.25;4.18;;;;;;;14.79;100.00;101652.38;10380232;28;20068;-74
2022/10/16 18:37:20;;;;;;;11.27;3.75;;;;;;;14.67;100.00;101645.84;10380671;28;20497;-74
2022/10/16 18:42:20;;;;;;;7.70;4.65;;;;;;;14.63;100.00;101646.25;10381585;28;20034;-74
2022/10/16 18:47:21;;;;;;;6.60;3.92;;;;;;;14.56;100.00;101639.13;10383297;28;20152;-74
2022/10/16 18:52:22;;;;;;;12.80;5.57;;;;;;;14.48;100.00;101648.28;10380383;28;20096;-74
2022/10/16 18:57:23;;;;;;;21.38;6.30;;;;;;;14.36;100.00;101647.22;10379459;28;20049;-75
2022/10/16 19:02:23;;;;;;;8.63;4.65;;;;;;;14.26;100.00;101646.75;10377808;28;20450;-75
2022/10/16 19:07:24;;;;;;;16.45;5.85;;;;;;;14.16;100.00;101642.50;10377278;28;20117;-74
2022/10/16 19:12:24;;;;;;;17.08;5.85;;;;;;;14.12;100.00;101643.13;10378013;28;20540;-74
2022/10/16 19:17:24;;;;;;;10.48;5.53;;;;;;;14.04;100.00;101649.59;10359683;28;20493;-74
2022/10/16 19:22:49;;;;;;;20.52;5.63;;;;;;;13.95;100.00;101650.81;10376805;28;20040;-74
2022/10/16 19:27:49;;;;;;;7.03;4.43;;;;;;;13.84;100.00;101627.69;10376341;28;20113;-74
2022/10/16 19:32:51;;;;;;;20.98;7.30;;;;;;;13.77;100.00;101609.66;10376442;28;20026;-75
2022/10/16 19:37:52;;;;;;;12.30;5.78;;;;;;;13.68;100.00;101589.91;10376957;28;20041;-76
2022/10/16 19:42:53;;;;;;;16.35;6.72;;;;;;;13.62;100.00;101585.28;10378100;28;20045;-76
2022/10/16 19:47:53;;;;;;;14.82;6.20;;;;;;;13.63;100.00;101595.13;10375507;28;20069;-76
2022/10/16 19:52:54;;;;;;;16.35;6.28;;;;;;;13.65;100.00;101579.44;10374715;28;20466;-76
2022/10/16 19:57:54;;;;;;;16.52;5.82;;;;;;;13.65;100.00;101582.16;10374521;28;20065;-76
2022/10/16 20:02:54;;;;;;;23.55;9.05;;;;;;;13.67;100.00;101586.34;10376179;28;20042;-75
2022/10/16 20:07:55;;;;;;;14.77;7.53;;;;;;;13.71;100.00;101597.69;10375990;28;20038;-75
2022/10/16 20:12:55;;;;;;;12.90;7.05;;;;;;;13.75;100.00;101609.00;10375829;28;20046;-75
2022/10/16 20:17:55;;;;;;;9.10;6.25;;;;;;;13.84;100.00;101610.53;10376351;28;20033;-75
2022/10/16 20:22:56;;;;;;;12.05;6.15;;;;;;;13.91;100.00;101617.69;10375069;28;20125;-75
2022/10/16 20:27:56;;;;;;;16.98;6.40;;;;;;;13.95;100.00;101618.97;10375230;28;20033;-77
2022/10/16 20:32:57;;;;;;;8.35;6.53;;;;;;;13.93;100.00;101604.69;10383608;28;20061;-77
2022/10/16 20:37:57;;;;;;;12.68;7.57;;;;;;;13.95;100.00;101612.69;10383051;28;20390;-75
2022/10/16 20:42:58;;;;;;;13.80;6.53;;;;;;;13.93;100.00;101599.25;10382251;28;20045;-74
2022/10/16 20:47:58;;;;;;;8.60;6.38;;;;;;;13.93;100.00;101599.25;10382584;28;20099;-75
2022/10/16 20:52:58;;;;;;;7.75;6.43;;;;;;;13.96;100.00;101593.41;10381513;28;20034;-74
2022/10/16 20:57:59;;;;;;;12.52;7.22;;;;;;;13.96;100.00;101576.22;10380615;28;20054;-74
2022/10/16 21:02:59;;;;;;;7.88;6.03;;;;;;;13.97;100.00;101583.34;10381555;28;20037;-74
2022/10/16 21:07:59;;;;;;;22.08;6.88;;;;;;;14.01;100.00;101581.06;10381605;28;20393;-75
2022/10/16 21:13:00;;;;;;;10.25;6.82;;;;;;;14.00;100.00;101572.06;10381201;28;20049;-75
2022/10/16 21:18:00;;;;;;;9.55;6.28;;;;;;;14.02;100.00;101578.16;10381243;28;20037;-75
2022/10/16 21:23:01;;;;;;;9.32;6.43;;;;;;;13.98;100.00;101560.53;10382779;28;20034;-75
2022/10/16 21:28:02;;;;;;;5.80;5.15;;;;;;;13.96;100.00;101544.41;10380305;28;20033;-74
2022/10/16 21:33:02;;;;;;;9.88;5.43;;;;;;;13.98;100.00;101546.94;10363593;28;20030;-75
2022/10/16 21:38:05;;;;;;;4.95;4.55;;;;;;;14.00;100.00;101555.72;10382243;28;20033;-74
2022/10/16 21:43:05;;;;;;;8.02;4.18;;;;;;;14.00;100.00;101554.88;10380340;28;20084;-74
2022/10/16 21:48:06;;;;;;;8.40;5.25;;;;;;;14.05;100.00;101561.41;10380150;28;20048;-74
2022/10/16 21:53:06;;;;;;;6.32;5.72;;;;;;;14.10;100.00;101547.16;10380146;28;20092;-74
2022/10/16 21:58:06;;;;;;;8.20;4.03;;;;;;;14.12;100.00;101566.88;10363857;28;20041;-74
2022/10/16 22:03:07;;;;;;;6.20;3.60;;;;;;;14.15;100.00;101570.00;10380261;28;20026;-74
2022/10/16 22:08:07;;;;;;;3.58;3.28;;;;;;;14.28;100.00;101554.75;10378686;28;20088;-74
2022/10/16 22:13:08;;;;;;;4.90;4.13;;;;;;;14.35;100.00;101539.25;10380161;28;20081;-75
2022/10/16 22:18:08;;;;;;;4.30;3.90;;;;;;;14.38;100.00;101538.84;10378982;28;20453;-74
2022/10/16 22:23:08;;;;;;;8.88;3.88;;;;;;;14.43;100.00;101541.81;10380030;28;20036;-74
2022/10/16 22:28:09;;;;;;;7.53;3.00;;;;;;;14.39;100.00;101540.53;10379219;28;20038;-75
2022/10/16 22:33:09;;;;;;;6.78;3.58;;;;;;;14.34;100.00;101551.22;10378423;28;20026;-75
2022/10/16 22:38:10;;;;;;;4.03;3.63;;;;;;;14.33;100.00;101544.09;10378792;28;20537;-74
2022/10/16 22:43:10;;;;;;;7.88;3.03;;;;;;;14.33;100.00;101549.53;10379176;28;20370;-74
2022/10/16 22:48:10;;;;;;;5.32;3.58;;;;;;;14.29;100.00;101548.25;10378480;28;20038;-74
2022/10/16 22:53:11;;;;;;;8.88;3.28;;;;;;;14.28;100.00;101550.13;10379064;28;20438;-74